createdAt,value
2022-08-19T00:00:16.056Z,4.45
2022-08-19T00:03:22.169Z,4.00
2022-08-19T00:06:32.453Z,4.00
2022-08-19T00:09:38.608Z,4.20
2022-08-19T00:12:48.169Z,4.00
2022-08-19T00:16:00.634Z,4.32
2022-08-19T00:19:06.939Z,4.50
2022-08-19T00:22:13.076Z,4.30
2022-08-19T00:25:30.039Z,4.43
2022-08-19T00:28:49.614Z,4.10
2022-08-19T00:31:56.621Z,3.50
2022-08-19T00:35:03.584Z,4.62
2022-08-19T00:38:09.283Z,3.95
2022-08-19T00:41:17.204Z,4.00
2022-08-19T00:44:27.133Z,4.00
2022-08-19T00:47:33.295Z,4.10
2022-08-19T00:50:51.881Z,4.15
2022-08-19T00:54:10.963Z,4.55
2022-08-19T00:57:21.718Z,4.12
2022-08-19T01:00:29.802Z,4.27
2022-08-19T01:03:58.121Z,4.30
2022-08-19T01:07:04.606Z,4.57
2022-08-19T01:10:14.097Z,4.40
2022-08-19T01:13:23.552Z,4.22
2022-08-19T01:16:30.952Z,4.47
2022-08-19T01:19:43.932Z,4.18
2022-08-19T01:22:58.411Z,4.72
2022-08-19T01:26:04.267Z,3.83
2022-08-19T01:29:10.444Z,4.65
2022-08-19T01:32:33.178Z,4.97
2022-08-19T01:35:47.165Z,4.78
2022-08-19T01:38:54.160Z,4.57
2022-08-19T01:41:59.802Z,4.32
2022-08-19T01:45:09.159Z,4.57
2022-08-19T01:48:15.976Z,4.80
2022-08-19T01:51:22.307Z,4.45
2022-08-19T01:54:28.532Z,4.55
2022-08-19T01:57:34.753Z,4.78
2022-08-19T02:00:40.832Z,4.47
2022-08-19T02:03:47.657Z,4.23
2022-08-19T02:06:53.879Z,4.65
2022-08-19T02:10:00.253Z,4.70
2022-08-19T02:13:09.737Z,4.60
2022-08-19T02:16:18.326Z,4.35
2022-08-19T02:19:24.286Z,4.70
2022-08-19T02:22:30.467Z,4.82
2022-08-19T02:25:36.080Z,4.80
2022-08-19T02:28:44.330Z,4.87
2022-08-19T02:31:50.259Z,4.47
2022-08-19T02:34:56.329Z,4.43
2022-08-19T02:38:22.396Z,4.75
2022-08-19T02:41:31.352Z,4.87
2022-08-19T02:44:37.053Z,5.12
2022-08-19T02:47:43.383Z,4.30
2022-08-19T02:50:53.640Z,5.40
2022-08-19T02:54:01.659Z,4.90
2022-08-19T02:57:07.983Z,4.93
2022-08-19T03:00:15.036Z,5.05
2022-08-19T03:03:21.507Z,4.50
2022-08-19T03:06:27.320Z,4.67
2022-08-19T03:09:33.272Z,5.22
2022-08-19T03:12:40.575Z,5.53
2022-08-19T03:15:48.580Z,4.40
2022-08-19T03:18:55.898Z,4.87
2022-08-19T03:22:02.405Z,5.00
2022-08-19T03:25:09.085Z,4.90
2022-08-19T03:28:16.893Z,4.93
2022-08-19T03:31:43.318Z,5.82
2022-08-19T03:34:55.449Z,5.03
2022-08-19T03:38:01.727Z,9.50
2022-08-19T03:41:10.075Z,6.40
2022-08-19T03:44:18.416Z,5.43
2022-08-19T03:47:24.850Z,6.25
2022-08-19T03:50:31.358Z,5.37
2022-08-19T03:53:37.481Z,5.93
2022-08-19T03:56:44.829Z,5.80
2022-08-19T03:59:51.124Z,5.90
2022-08-19T04:02:58.718Z,6.47
2022-08-19T04:06:16.300Z,6.10
2022-08-19T04:09:22.499Z,6.47
2022-08-19T04:12:28.815Z,8.30
2022-08-19T04:15:41.206Z,8.00
2022-08-19T04:18:47.713Z,7.15
2022-08-19T04:21:55.464Z,7.20
2022-08-19T04:25:01.308Z,6.57
2022-08-19T04:28:07.601Z,7.10
2022-08-19T04:31:18.821Z,6.95
2022-08-19T04:34:27.622Z,7.05
2022-08-19T04:37:35.753Z,6.87
2022-08-19T04:41:03.147Z,7.27
2022-08-19T04:44:09.818Z,6.70
2022-08-19T04:47:15.803Z,7.07
2022-08-19T04:50:44.939Z,7.75
2022-08-19T04:53:52.002Z,7.40
2022-08-19T04:56:58.099Z,7.30
2022-08-19T05:00:04.217Z,7.18
2022-08-19T05:03:10.401Z,7.60
2022-08-19T05:06:17.368Z,7.68
2022-08-19T05:09:23.398Z,7.95
2022-08-19T05:12:30.520Z,7.50
2022-08-19T05:15:37.409Z,8.07
2022-08-19T05:19:03.373Z,8.50
2022-08-19T05:22:28.651Z,8.68
2022-08-19T05:25:35.462Z,8.80
2022-08-19T05:28:41.532Z,8.85
2022-08-19T05:31:49.034Z,8.97
2022-08-19T05:34:55.604Z,9.00
2022-08-19T05:38:01.722Z,9.43
2022-08-19T05:41:11.162Z,9.23
2022-08-19T05:44:19.312Z,9.80
2022-08-19T05:47:25.397Z,9.53
2022-08-19T05:50:32.095Z,10.13
2022-08-19T05:53:43.028Z,10.43
2022-08-19T05:56:49.156Z,10.43
2022-08-19T05:59:58.690Z,9.82
2022-08-19T06:03:09.704Z,10.30
2022-08-19T06:06:23.912Z,10.77
2022-08-19T06:09:29.853Z,10.15
2022-08-19T06:12:37.356Z,10.35
2022-08-19T06:15:45.990Z,10.18
2022-08-19T06:18:56.171Z,9.90
2022-08-19T06:22:03.305Z,10.40
2022-08-19T06:25:11.222Z,10.88
2022-08-19T06:28:17.469Z,10.68
2022-08-19T06:31:33.212Z,10.45
2022-08-19T06:34:42.993Z,10.23
2022-08-19T06:37:49.091Z,10.50
2022-08-19T06:41:17.033Z,10.07
2022-08-19T06:44:25.832Z,11.10
2022-08-19T06:47:32.809Z,9.73
2022-08-19T06:50:39.725Z,9.93
2022-08-19T06:56:55.308Z,9.57
2022-08-19T07:00:02.079Z,10.35
2022-08-19T07:03:13.071Z,9.88
2022-08-19T07:09:52.279Z,9.60
2022-08-19T07:13:19.496Z,10.02
2022-08-19T07:16:28.843Z,10.23
2022-08-19T07:19:35.616Z,9.48
2022-08-19T07:22:41.755Z,9.33
2022-08-19T07:25:53.090Z,9.98
2022-08-19T07:29:09.907Z,10.15
2022-08-19T07:32:15.930Z,9.50
2022-08-19T07:35:30.066Z,9.60
2022-08-19T07:38:37.005Z,10.70
2022-08-19T07:41:49.312Z,9.27
2022-08-19T07:44:55.887Z,10.52
2022-08-19T07:48:24.943Z,9.88
2022-08-19T07:51:36.516Z,10.55
2022-08-19T07:54:58.882Z,10.00
2022-08-19T07:58:05.452Z,10.02
2022-08-19T08:01:20.770Z,9.77
2022-08-19T08:04:49.871Z,10.05
2022-08-19T08:08:16.062Z,9.57
2022-08-19T08:11:24.184Z,9.40
2022-08-19T08:14:36.795Z,10.18
2022-08-19T08:17:49.837Z,10.00
2022-08-19T08:21:15.233Z,10.45
2022-08-19T08:24:22.380Z,10.32
2022-08-19T08:27:53.727Z,10.27
2022-08-19T08:31:01.478Z,9.82
2022-08-19T08:34:07.512Z,10.68
2022-08-19T08:37:13.601Z,10.20
2022-08-19T08:40:26.569Z,10.75
2022-08-19T08:43:45.472Z,10.60
2022-08-19T08:46:58.806Z,10.20
2022-08-19T08:50:17.811Z,10.55
2022-08-19T08:53:31.168Z,10.00
2022-08-19T08:56:44.579Z,10.25
2022-08-19T08:59:53.187Z,10.67
2022-08-19T09:03:01.748Z,9.73
2022-08-19T09:06:26.833Z,9.00
2022-08-19T09:09:46.013Z,10.32
2022-08-19T09:13:02.260Z,10.02
2022-08-19T09:16:27.953Z,9.90
2022-08-19T09:19:34.128Z,9.85
2022-08-19T09:22:40.920Z,10.02
2022-08-19T09:25:52.956Z,10.82
2022-08-19T09:28:59.869Z,9.93
2022-08-19T09:32:06.245Z,9.97
2022-08-19T09:35:33.558Z,9.60
2022-08-19T09:39:04.753Z,9.70
2022-08-19T09:42:30.220Z,9.77
2022-08-19T09:45:54.716Z,10.25
2022-08-19T09:49:06.282Z,9.67
2022-08-19T09:52:13.803Z,10.48
2022-08-19T09:55:21.397Z,9.25
2022-08-19T09:58:32.193Z,9.40
2022-08-19T10:01:38.059Z,10.65
2022-08-19T10:05:05.850Z,10.07
2022-08-19T10:08:14.538Z,10.57
2022-08-19T10:11:28.268Z,10.75
2022-08-19T10:14:53.104Z,10.18
2022-08-19T10:18:01.002Z,10.38
2022-08-19T10:21:11.885Z,10.47
2022-08-19T10:24:17.920Z,10.95
2022-08-19T10:27:26.383Z,10.02
2022-08-19T10:30:38.551Z,10.40
2022-08-19T10:33:53.358Z,10.55
2022-08-19T10:37:10.750Z,11.27
2022-08-19T10:40:18.166Z,11.55
2022-08-19T10:43:24.934Z,11.32
2022-08-19T10:46:34.450Z,10.95
2022-08-19T10:50:03.414Z,10.75
2022-08-19T10:53:11.638Z,9.73
2022-08-19T10:56:38.197Z,8.90
2022-08-19T10:59:45.748Z,9.43
2022-08-19T11:02:53.456Z,8.98
2022-08-19T11:06:03.790Z,9.48
2022-08-19T11:09:10.448Z,9.10
2022-08-19T11:12:17.653Z,9.27
2022-08-19T11:15:24.098Z,8.95
2022-08-19T11:18:30.730Z,9.13
2022-08-19T11:21:38.776Z,8.43
2022-08-19T11:24:45.796Z,8.53
2022-08-19T11:27:52.949Z,8.75
2022-08-19T11:30:59.651Z,8.73
2022-08-19T11:34:07.500Z,8.70
2022-08-19T11:37:13.722Z,8.40
2022-08-19T11:40:19.949Z,8.33
2022-08-19T11:43:28.293Z,8.50
2022-08-19T11:46:34.680Z,8.50
2022-08-19T11:49:41.244Z,8.13
2022-08-19T11:52:48.646Z,7.90
2022-08-19T11:55:57.785Z,8.37
2022-08-19T11:59:04.265Z,7.97
2022-08-19T12:02:10.735Z,7.40
2022-08-19T12:05:17.881Z,7.72
2022-08-19T12:08:24.438Z,7.20
2022-08-19T12:11:34.731Z,7.13
2022-08-19T12:14:42.185Z,7.62
2022-08-19T12:17:48.343Z,6.62
2022-08-19T12:20:58.912Z,7.35
2022-08-19T12:24:07.497Z,7.43
2022-08-19T12:27:13.733Z,7.20
2022-08-19T12:30:41.605Z,7.18
2022-08-19T12:33:48.854Z,6.62
2022-08-19T12:36:55.015Z,7.05
2022-08-19T12:40:01.306Z,7.57
2022-08-19T12:43:14.834Z,7.30
2022-08-19T12:46:26.049Z,7.10
2022-08-19T12:49:53.838Z,6.95
2022-08-19T12:53:04.101Z,7.35
2022-08-19T12:56:12.992Z,7.20
2022-08-19T12:59:20.349Z,7.23
2022-08-19T13:02:26.464Z,7.30
2022-08-19T13:05:37.736Z,7.07
2022-08-19T13:08:46.609Z,6.68
2022-08-19T13:11:52.705Z,6.95
2022-08-19T13:14:59.606Z,6.30
2022-08-19T13:18:06.149Z,6.03
2022-08-19T13:21:15.944Z,5.65
2022-08-19T13:24:22.078Z,6.00
2022-08-19T13:27:34.326Z,5.62
2022-08-19T13:31:07.005Z,5.90
2022-08-19T13:34:17.035Z,5.60
2022-08-19T13:37:44.597Z,5.10
2022-08-19T13:40:52.030Z,5.62
2022-08-19T13:43:58.774Z,5.20
2022-08-19T13:47:10.460Z,5.30
2022-08-19T13:50:18.957Z,5.62
2022-08-19T13:53:25.220Z,5.60
2022-08-19T13:56:31.688Z,5.50
2022-08-19T13:59:37.982Z,5.28
2022-08-19T14:02:45.188Z,5.73
2022-08-19T14:05:51.298Z,7.75
2022-08-19T14:08:57.450Z,6.80
2022-08-19T14:13:11.259Z,7.35
2022-08-19T14:16:18.525Z,7.55
2022-08-19T14:19:24.485Z,5.87
2022-08-19T14:22:41.261Z,5.50
2022-08-19T14:25:48.411Z,5.93
2022-08-19T14:28:54.794Z,5.65
2022-08-19T14:32:00.815Z,5.50
2022-08-19T14:35:09.224Z,5.23
2022-08-19T14:38:18.994Z,5.68
2022-08-19T14:41:48.021Z,5.00
2022-08-19T14:44:54.297Z,5.90
2022-08-19T14:48:02.028Z,6.75
2022-08-19T14:51:09.682Z,5.73
2022-08-19T14:54:15.864Z,5.87
2022-08-19T14:57:21.851Z,5.60
2022-08-19T15:00:28.908Z,5.43
2022-08-19T15:03:35.098Z,6.45
2022-08-19T15:06:41.609Z,5.50
2022-08-19T15:09:47.689Z,5.37
2022-08-19T15:12:55.098Z,5.78
2022-08-19T15:16:02.911Z,5.65
2022-08-19T15:19:25.152Z,6.10
2022-08-19T15:22:32.894Z,5.63
2022-08-19T15:25:40.256Z,6.50
2022-08-19T15:28:49.212Z,5.78
2022-08-19T15:31:58.811Z,5.35
2022-08-19T15:35:09.833Z,5.50
2022-08-19T15:38:19.132Z,5.53
2022-08-19T15:41:32.137Z,6.18
2022-08-19T15:44:41.950Z,5.80
2022-08-19T15:47:50.578Z,6.20
2022-08-19T15:50:58.153Z,5.80
2022-08-19T15:54:08.229Z,6.27
2022-08-19T15:57:24.134Z,5.90
2022-08-19T16:00:51.552Z,5.95
2022-08-19T16:04:40.972Z,5.75
2022-08-19T16:07:48.973Z,5.75
2022-08-19T16:10:55.796Z,5.63
2022-08-19T16:14:03.476Z,5.90
2022-08-19T16:17:12.672Z,5.40
2022-08-19T16:20:19.043Z,5.72
2022-08-19T16:23:27.759Z,5.60
2022-08-19T16:26:35.574Z,6.40
2022-08-19T16:29:41.784Z,5.90
2022-08-19T16:32:47.601Z,6.40
2022-08-19T16:36:00.154Z,6.07
2022-08-19T16:39:22.927Z,6.03
2022-08-19T16:42:29.026Z,6.23
2022-08-19T16:45:35.001Z,6.30
2022-08-19T16:48:43.849Z,6.18
2022-08-19T16:51:50.098Z,6.10
2022-08-19T16:54:56.376Z,6.85
2022-08-19T16:58:05.746Z,8.67
2022-08-19T17:01:13.078Z,7.55
2022-08-19T17:04:23.417Z,6.82
2022-08-19T17:07:33.217Z,7.10
2022-08-19T17:10:45.575Z,7.00
2022-08-19T17:14:09.488Z,6.43
2022-08-19T17:17:15.609Z,6.60
2022-08-19T17:20:22.934Z,6.37
2022-08-19T17:23:42.372Z,6.95
2022-08-19T17:26:58.655Z,6.25
2022-08-19T17:30:07.635Z,6.03
2022-08-19T17:33:13.825Z,6.80
2022-08-19T17:36:24.136Z,6.65
2022-08-19T17:39:30.533Z,6.65
2022-08-19T17:42:58.119Z,7.15
2022-08-19T17:46:05.751Z,5.87
2022-08-19T17:49:12.318Z,6.95
2022-08-19T17:52:18.503Z,6.43
2022-08-19T17:55:25.955Z,6.40
2022-08-19T17:58:31.829Z,5.95
2022-08-19T18:01:53.916Z,6.03
2022-08-19T18:05:08.070Z,7.05
2022-08-19T18:08:14.595Z,6.55
2022-08-19T18:11:21.031Z,6.45
2022-08-19T18:14:33.963Z,6.62
2022-08-19T18:17:41.060Z,7.07
2022-08-19T18:20:47.236Z,6.62
2022-08-19T18:23:53.221Z,6.28
2022-08-19T18:27:22.541Z,6.30
2022-08-19T18:30:35.608Z,6.30
2022-08-19T18:33:44.389Z,7.30
2022-08-19T18:36:53.871Z,6.57
2022-08-19T18:40:21.199Z,6.85
2022-08-19T18:43:47.429Z,6.97
2022-08-19T18:47:15.332Z,7.30
2022-08-19T18:50:22.621Z,7.53
2022-08-19T18:53:31.529Z,7.20
2022-08-19T18:56:40.089Z,7.60
2022-08-19T18:59:48.737Z,8.02
2022-08-19T19:02:55.304Z,7.60
2022-08-19T19:06:02.444Z,7.63
2022-08-19T19:09:11.370Z,8.35
2022-08-19T19:12:19.349Z,7.70
2022-08-19T19:15:25.194Z,8.50
2022-08-19T19:18:32.489Z,8.07
2022-08-19T19:21:38.279Z,7.87
2022-08-19T19:24:47.490Z,7.95
2022-08-19T19:27:55.725Z,7.97
2022-08-19T19:31:02.735Z,8.27
2022-08-19T19:34:29.265Z,8.15
2022-08-19T19:37:37.039Z,9.57
2022-08-19T19:40:43.220Z,8.55
2022-08-19T19:43:59.919Z,7.60
2022-08-19T19:47:20.276Z,8.45
2022-08-19T19:50:32.048Z,8.88
2022-08-19T19:53:38.171Z,8.83
2022-08-19T19:56:46.378Z,8.90
2022-08-19T19:59:52.201Z,9.77
2022-08-19T20:02:58.814Z,9.48
2022-08-19T20:06:05.413Z,8.30
2022-08-19T20:09:14.221Z,8.47
2022-08-19T20:12:23.892Z,9.48
2022-08-19T20:15:32.082Z,8.98
2022-08-19T20:18:40.012Z,9.75
2022-08-19T20:21:50.797Z,9.05
2022-08-19T20:24:57.805Z,9.77
2022-08-19T20:28:07.059Z,9.75
2022-08-19T20:31:13.295Z,10.57
2022-08-19T20:34:19.439Z,10.55
2022-08-19T20:37:26.616Z,10.43
2022-08-19T20:40:34.877Z,9.07
2022-08-19T20:43:41.323Z,10.35
2022-08-19T20:46:54.701Z,10.10
2022-08-19T20:50:17.774Z,10.00
2022-08-19T20:53:25.469Z,10.98
2022-08-19T20:56:31.633Z,10.67
2022-08-19T20:59:39.136Z,10.18
2022-08-19T21:02:45.694Z,11.15
2022-08-19T21:05:52.949Z,11.12
2022-08-19T21:08:58.921Z,10.75
2022-08-19T21:12:06.790Z,10.83
2022-08-19T21:15:13.020Z,10.50
2022-08-19T21:18:21.444Z,10.48
2022-08-19T21:21:27.722Z,10.27
2022-08-19T21:24:34.087Z,9.95
2022-08-19T21:27:39.970Z,9.43
2022-08-19T21:30:46.870Z,10.10
2022-08-19T21:33:52.607Z,10.02
2022-08-19T21:36:59.008Z,10.10
2022-08-19T21:40:06.223Z,9.10
2022-08-19T21:43:12.349Z,9.57
2022-08-19T21:46:18.371Z,8.50
2022-08-19T21:49:24.971Z,7.70
2022-08-19T21:52:31.651Z,7.28
2022-08-19T21:55:52.856Z,6.82
2022-08-19T21:59:15.345Z,7.03
2022-08-19T22:02:21.931Z,6.78
2022-08-19T22:05:29.289Z,7.28
2022-08-19T22:08:35.774Z,7.95
2022-08-19T22:11:43.953Z,7.18
2022-08-19T22:14:51.213Z,6.70
2022-08-19T22:17:59.347Z,6.37
2022-08-19T22:21:11.379Z,6.87
2022-08-19T22:24:17.843Z,6.15
2022-08-19T22:27:23.749Z,6.37
2022-08-19T22:30:33.273Z,6.93
2022-08-19T22:33:40.406Z,6.35
2022-08-19T22:36:46.410Z,6.87
2022-08-19T22:39:53.188Z,6.68
2022-08-19T22:43:04.344Z,6.70
2022-08-19T22:46:16.802Z,7.30
2022-08-19T22:49:39.086Z,6.68
2022-08-19T22:52:52.023Z,6.18
2022-08-19T22:56:15.533Z,7.10
2022-08-19T22:59:22.165Z,7.20
2022-08-19T23:02:35.265Z,6.50
2022-08-19T23:05:41.883Z,6.87
2022-08-19T23:08:48.063Z,6.45
2022-08-19T23:11:54.773Z,6.87
2022-08-19T23:15:14.362Z,6.53
2022-08-19T23:18:21.087Z,7.20
2022-08-19T23:21:27.579Z,6.80
2022-08-19T23:24:33.598Z,7.60
2022-08-19T23:28:00.496Z,6.68
2022-08-19T23:31:08.325Z,7.70
2022-08-19T23:34:14.173Z,8.20
2022-08-19T23:37:20.403Z,7.85
2022-08-19T23:40:28.554Z,7.43
2022-08-19T23:43:35.265Z,7.53
2022-08-19T23:46:54.409Z,8.30
2022-08-19T23:50:10.212Z,7.47
2022-08-19T23:53:16.758Z,7.47
2022-08-19T23:56:23.277Z,7.05
2022-08-19T23:59:29.577Z,7.03
